Airport View

Enter AWOS ICAO identifier for current METAR.

ex. KFNL

KOCQ 022350Z AUTO 35003KT 10SM CLR 31/14 A2970 RMK AO1 T03050143 10342 20305

2 Jun 2020 23:50

Frequency: 120.925

Phone: 920-835-1599

Other Area AWOS: KMNM - KSUE - KGRB - KEZS

TAF KGRB 021728Z 0218/0318 24010KT P6SM SKC FM022100 26008KT P6SM SCT040 FM030000 30006KT P6SM VCTS BKN040CB TEMPO 0301/0305 3SM TSRA BKN025CB FM030700 29004KT P6SM BKN080 FM031400 31005KT P6SM SKC